createdAt,value
2019-01-03T00:04:43.706Z,103327.31
2019-01-03T00:10:00.193Z,103326.20
2019-01-03T00:15:11.552Z,103318.14
2019-01-03T00:20:23.715Z,103315.28
2019-01-03T00:25:35.014Z,103313.11
2019-01-03T00:30:46.490Z,103316.39
2019-01-03T00:35:57.749Z,103332.33
2019-01-03T00:41:02.359Z,103324.97
2019-01-03T00:46:22.793Z,103326.61
2019-01-03T00:51:33.882Z,103320.20
2019-01-03T00:56:46.568Z,103317.35
2019-01-03T01:01:57.915Z,103317.38
2019-01-03T01:07:14.457Z,103330.05
2019-01-03T01:12:39.008Z,103327.69
2019-01-03T01:17:57.762Z,103330.92
2019-01-03T01:23:09.176Z,103341.91
2019-01-03T01:28:19.119Z,103344.87
2019-01-03T01:33:31.588Z,103349.93
2019-01-03T01:38:47.119Z,103364.03
2019-01-03T01:43:58.400Z,103373.10
2019-01-03T01:49:15.569Z,103375.48
2019-01-03T01:54:28.058Z,103374.94
2019-01-03T01:59:49.639Z,103378.30
2019-01-03T02:05:00.792Z,103376.73
2019-01-03T02:10:16.290Z,103376.73
2019-01-03T02:15:35.000Z,103377.92
2019-01-03T02:20:46.098Z,103409.42
2019-01-03T02:26:10.201Z,103396.05
2019-01-03T02:31:28.893Z,103394.12
2019-01-03T02:36:53.336Z,103383.22
2019-01-03T02:41:58.852Z,103373.90
2019-01-03T02:47:17.178Z,103366.57
2019-01-03T02:52:32.593Z,103363.53
2019-01-03T02:57:47.819Z,103359.44
2019-01-03T03:03:00.295Z,103339.49
2019-01-03T03:08:11.695Z,103337.08
2019-01-03T03:13:27.302Z,103315.35
2019-01-03T03:18:34.392Z,103308.63
2019-01-03T03:23:49.706Z,103306.16
2019-01-03T03:29:22.411Z,103297.76
2019-01-03T03:34:33.535Z,103296.33
2019-01-03T03:39:49.046Z,103297.27
2019-01-03T03:45:00.354Z,103288.73
2019-01-03T03:50:28.269Z,103288.02
2019-01-03T03:55:43.463Z,103300.19
2019-01-03T04:01:01.921Z,103301.34
2019-01-03T04:06:32.660Z,103296.63
2019-01-03T04:11:56.967Z,103293.34
2019-01-03T04:17:15.263Z,103287.27
2019-01-03T04:22:26.415Z,103294.88
2019-01-03T04:27:31.803Z,103299.32
2019-01-03T04:32:54.802Z,103294.36
2019-01-03T04:38:10.008Z,103300.83
2019-01-03T04:43:37.802Z,103305.55
2019-01-03T04:48:56.284Z,103294.95
2019-01-03T04:54:07.567Z,103286.83
2019-01-03T04:59:18.577Z,103288.67
2019-01-03T05:04:35.754Z,103281.78
2019-01-03T05:09:47.060Z,103281.06
2019-01-03T05:15:05.680Z,103289.41
2019-01-03T05:20:17.049Z,103288.67
2019-01-03T05:25:26.360Z,103285.73
2019-01-03T05:30:41.794Z,103287.97
2019-01-03T05:36:09.348Z,103289.21
2019-01-03T05:41:24.596Z,103288.83
2019-01-03T05:46:34.647Z,103285.77
2019-01-03T05:52:05.297Z,103278.58
2019-01-03T05:57:30.024Z,103280.23
2019-01-03T06:02:41.408Z,103293.40
2019-01-03T06:07:52.874Z,103293.65
2019-01-03T06:13:14.048Z,103290.51
2019-01-03T06:18:35.681Z,103291.73
2019-01-03T06:23:46.845Z,103289.47
2019-01-03T06:28:59.341Z,103291.37
2019-01-03T06:34:24.152Z,103304.23
2019-01-03T06:39:48.741Z,103302.17
2019-01-03T06:45:16.373Z,103301.58
2019-01-03T06:50:40.997Z,103305.63
2019-01-03T06:56:08.922Z,103309.84
2019-01-03T07:01:12.445Z,103312.25
2019-01-03T07:06:23.878Z,103311.17
2019-01-03T07:11:34.878Z,103322.92
2019-01-03T07:16:37.829Z,103328.80
2019-01-03T07:21:56.181Z,103319.01
2019-01-03T07:27:11.647Z,103314.67
2019-01-03T07:32:22.858Z,103321.49
2019-01-03T07:37:48.469Z,103321.15
2019-01-03T07:43:00.770Z,103325.39
2019-01-03T07:48:19.503Z,103338.16
2019-01-03T07:53:24.290Z,103337.33
2019-01-03T07:58:36.846Z,103328.55
2019-01-03T08:04:01.720Z,103337.41
2019-01-03T08:09:04.622Z,103342.80
2019-01-03T08:14:15.979Z,103342.25
2019-01-03T08:19:37.686Z,103336.85
2019-01-03T08:24:48.806Z,103346.11
2019-01-03T08:30:00.021Z,103354.27
2019-01-03T08:35:15.554Z,103347.29
2019-01-03T08:40:36.363Z,103349.80
2019-01-03T08:45:51.755Z,103346.88
2019-01-03T08:51:03.003Z,103358.02
2019-01-03T08:56:14.652Z,103357.42
2019-01-03T09:01:27.066Z,103360.85
2019-01-03T09:06:42.982Z,103362.66
2019-01-03T09:11:55.070Z,103367.11
2019-01-03T09:17:06.554Z,103367.85
2019-01-03T09:22:18.101Z,103364.58
2019-01-03T09:27:30.600Z,103362.45
2019-01-03T09:32:49.372Z,103365.80
2019-01-03T09:38:01.911Z,103363.45
2019-01-03T09:43:30.073Z,103374.81
2019-01-03T09:48:23.024Z,103373.05
2019-01-03T09:53:15.926Z,103370.09
2019-01-03T09:58:08.858Z,103378.56
2019-01-03T10:03:01.816Z,103385.14
2019-01-03T10:07:54.742Z,103376.88
2019-01-03T10:12:47.667Z,103368.99
2019-01-03T10:17:40.497Z,103370.84
2019-01-03T10:22:33.399Z,103366.80
2019-01-03T10:27:26.277Z,103361.14
2019-01-03T10:32:19.212Z,103352.53
2019-01-03T10:37:12.069Z,103348.98
2019-01-03T10:42:05.009Z,103349.05
2019-01-03T10:46:57.874Z,103346.95
2019-01-03T10:51:50.831Z,103349.59
2019-01-03T10:56:43.703Z,103343.17
2019-01-03T11:01:36.581Z,103332.35
2019-01-03T11:06:29.470Z,103330.92
2019-01-03T11:11:22.364Z,103335.88
2019-01-03T11:16:15.260Z,103325.57
2019-01-03T11:21:08.138Z,103320.21
2019-01-03T11:26:01.012Z,103320.61
2019-01-03T11:30:53.917Z,103317.12
2019-01-03T11:35:46.816Z,103312.17
2019-01-03T11:40:39.699Z,103307.56
2019-01-03T11:45:32.562Z,103299.14
2019-01-03T11:50:25.459Z,103296.77
2019-01-03T11:55:18.429Z,103294.08
2019-01-03T12:00:11.294Z,103291.94
2019-01-03T12:05:05.272Z,103294.18
2019-01-03T12:09:58.153Z,103289.86
2019-01-03T12:14:51.010Z,103284.61
2019-01-03T12:19:43.941Z,103286.07
2019-01-03T12:24:36.818Z,103277.75
2019-01-03T12:29:29.742Z,103284.95
2019-01-03T12:34:22.664Z,103271.33
2019-01-03T12:39:15.492Z,103278.74
2019-01-03T12:44:10.106Z,103290.36
2019-01-03T12:49:03.197Z,103294.05
2019-01-03T12:53:56.072Z,103294.59
2019-01-03T12:58:48.912Z,103291.60
2019-01-03T13:03:41.797Z,103280.80
2019-01-03T13:08:34.727Z,103269.08
2019-01-03T13:13:28.870Z,103274.39
2019-01-03T13:18:21.914Z,103276.88
2019-01-03T13:23:14.808Z,103284.84
2019-01-03T13:28:07.675Z,103292.02
2019-01-03T13:33:00.678Z,103306.33
2019-01-03T13:37:53.546Z,103300.02
2019-01-03T13:42:46.431Z,103308.27
2019-01-03T13:47:39.309Z,103308.33
2019-01-03T13:52:34.010Z,103284.84
2019-01-03T13:57:26.882Z,103287.92
2019-01-03T14:02:21.370Z,103277.30
2019-01-03T14:07:14.236Z,103276.88
2019-01-03T14:12:07.375Z,103278.58
2019-01-03T14:17:00.305Z,103287.98
2019-01-03T14:21:53.238Z,103289.79
2019-01-03T14:26:46.092Z,103289.10
2019-01-03T14:31:38.969Z,103296.96
2019-01-03T14:36:31.884Z,103298.67
2019-01-03T14:41:24.863Z,103315.19
2019-01-03T14:46:17.717Z,103313.63
2019-01-03T14:51:10.654Z,103298.50
2019-01-03T14:56:03.579Z,103294.98
2019-01-03T15:00:56.496Z,103302.28
2019-01-03T15:05:49.338Z,103301.41
2019-01-03T15:10:42.211Z,103293.49
2019-01-03T15:15:35.078Z,103290.52
2019-01-03T15:20:27.956Z,103287.64
2019-01-03T15:25:20.836Z,103292.02
2019-01-03T15:30:13.783Z,103296.59
2019-01-03T15:35:07.078Z,103292.39
2019-01-03T15:39:59.962Z,103295.81
2019-01-03T15:44:52.997Z,103305.70
2019-01-03T15:49:45.845Z,103312.33
2019-01-03T15:54:38.724Z,103309.34
2019-01-03T15:59:31.574Z,103306.47
2019-01-03T16:04:24.536Z,103303.69
2019-01-03T16:09:19.216Z,103305.52
2019-01-03T16:14:12.154Z,103313.41
2019-01-03T16:19:05.071Z,103313.17
2019-01-03T16:23:57.955Z,103316.79
2019-01-03T16:28:50.874Z,103314.70
2019-01-03T16:33:43.774Z,103320.63
2019-01-03T16:38:37.088Z,103323.88
2019-01-03T16:43:29.932Z,103320.25
2019-01-03T16:48:22.816Z,103322.81
2019-01-03T16:53:15.754Z,103324.92
2019-01-03T16:58:08.639Z,103318.39
2019-01-03T17:03:01.531Z,103320.18
2019-01-03T17:07:54.403Z,103322.25
2019-01-03T17:12:47.532Z,103325.78
2019-01-03T17:17:42.604Z,103321.30
2019-01-03T17:22:35.786Z,103319.88
2019-01-03T17:27:28.675Z,103316.73
2019-01-03T17:32:21.556Z,103320.80
2019-01-03T17:37:14.503Z,103324.34
2019-01-03T17:42:07.362Z,103334.22
2019-01-03T17:47:00.251Z,103338.06
2019-01-03T17:51:53.134Z,103341.59
2019-01-03T17:56:46.001Z,103343.52
2019-01-03T18:01:40.713Z,103343.94
2019-01-03T18:06:33.573Z,103341.52
2019-01-03T18:11:26.592Z,103342.30
2019-01-03T18:16:19.477Z,103329.72
2019-01-03T18:21:12.471Z,103322.40
2019-01-03T18:26:05.414Z,103324.62
2019-01-03T18:30:58.353Z,103330.70
2019-01-03T18:35:51.204Z,103332.84
2019-01-03T18:40:44.098Z,103331.39
2019-01-03T18:45:36.939Z,103333.07
2019-01-03T18:50:29.817Z,103333.30
2019-01-03T18:55:22.764Z,103332.19
2019-01-03T19:00:15.674Z,103330.42
2019-01-03T19:05:08.566Z,103331.34
2019-01-03T19:10:01.455Z,103344.00
2019-01-03T19:14:54.423Z,103345.14
2019-01-03T19:19:47.363Z,103330.02
2019-01-03T19:24:41.325Z,103338.86
2019-01-03T19:29:34.385Z,103350.73
2019-01-03T19:34:27.299Z,103355.59
2019-01-03T19:39:20.241Z,103356.87
2019-01-03T19:44:40.502Z,103361.78
2019-01-03T19:49:33.354Z,103368.85
2019-01-03T19:54:26.248Z,103374.53
2019-01-03T19:59:19.245Z,103374.10
2019-01-03T20:04:12.217Z,103362.22
2019-01-03T20:09:05.806Z,103368.06
2019-01-03T20:13:58.705Z,103361.33
2019-01-03T20:18:52.078Z,103367.80
2019-01-03T20:23:45.025Z,103362.30
2019-01-03T20:28:38.001Z,103361.16
2019-01-03T20:33:30.817Z,103358.83
2019-01-03T20:38:23.883Z,103356.01
2019-01-03T20:43:16.925Z,103346.92
2019-01-03T20:48:09.806Z,103347.69
2019-01-03T20:53:02.812Z,103358.95
2019-01-03T20:57:55.697Z,103342.91
2019-01-03T21:02:49.685Z,103346.34
2019-01-03T21:07:42.608Z,103336.91
2019-01-03T21:12:35.612Z,103342.09
2019-01-03T21:17:28.550Z,103343.01
2019-01-03T21:22:21.470Z,103349.80
2019-01-03T21:27:14.387Z,103350.00
2019-01-03T21:32:07.235Z,103355.89
2019-01-03T21:37:00.095Z,103362.13
2019-01-03T21:41:53.017Z,103365.13
2019-01-03T21:46:45.937Z,103353.00
2019-01-03T21:51:40.031Z,103356.03
2019-01-03T21:56:32.881Z,103361.19
2019-01-03T22:01:25.935Z,103365.45
2019-01-03T22:06:18.831Z,103368.53
2019-01-03T22:11:11.759Z,103364.95
2019-01-03T22:16:04.609Z,103366.63
2019-01-03T22:20:57.522Z,103375.49
2019-01-03T22:25:50.531Z,103373.78
2019-01-03T22:30:45.073Z,103369.59
2019-01-03T22:35:38.174Z,103377.58
2019-01-03T22:40:31.044Z,103373.23
2019-01-03T22:45:23.929Z,103371.42
2019-01-03T22:50:16.789Z,103373.33
2019-01-03T22:55:09.712Z,103375.04
2019-01-03T23:00:03.900Z,103373.70
2019-01-03T23:04:56.821Z,103369.20
2019-01-03T23:09:49.625Z,103375.53
2019-01-03T23:14:42.503Z,103375.81
2019-01-03T23:19:35.370Z,103379.70
2019-01-03T23:24:28.281Z,103377.02
2019-01-03T23:29:21.163Z,103376.89
2019-01-03T23:34:14.067Z,103369.77
2019-01-03T23:39:07.101Z,103366.30
2019-01-03T23:43:59.980Z,103361.10
2019-01-03T23:48:53.113Z,103362.64
2019-01-03T23:53:45.971Z,103355.07
2019-01-03T23:58:38.842Z,103365.47
